sensor_id;sensor_type;location;lat;lon;timestamp;pressure;altitude;pressure_sealevel;temperature;humidity
55994;BME280;41879;52.126;20.638;2022-10-16T00:01:18;57395.88;;;-144.78;92.81
55994;BME280;41879;52.126;20.638;2022-10-16T00:03:45;57385.50;;;-144.78;92.83
55994;BME280;41879;52.126;20.638;2022-10-16T00:06:12;57393.81;;;-144.78;94.34
55994;BME280;41879;52.126;20.638;2022-10-16T00:08:38;57410.44;;;-144.78;93.65
55994;BME280;41879;52.126;20.638;2022-10-16T00:11:10;57389.66;;;-144.78;93.81
55994;BME280;41879;52.126;20.638;2022-10-16T00:13:38;57397.97;;;-144.78;93.28
55994;BME280;41879;52.126;20.638;2022-10-16T00:16:04;57402.13;;;-144.78;93.67
55994;BME280;41879;52.126;20.638;2022-10-16T00:18:30;57375.13;;;-144.78;92.96
55994;BME280;41879;52.126;20.638;2022-10-16T00:21:04;57385.50;;;-144.78;94.62
55994;BME280;41879;52.126;20.638;2022-10-16T00:23:31;57375.13;;;-144.78;94.25
55994;BME280;41879;52.126;20.638;2022-10-16T00:25:59;57410.44;;;-144.78;95.01
55994;BME280;41879;52.126;20.638;2022-10-16T00:28:25;57385.50;;;-144.78;95.71
55994;BME280;41879;52.126;20.638;2022-10-16T00:30:50;57368.91;;;-144.78;95.53
55994;BME280;41879;52.126;20.638;2022-10-16T00:33:16;57404.19;;;-144.78;95.45
55994;BME280;41879;52.126;20.638;2022-10-16T00:35:41;57387.59;;;-144.78;95.72
55994;BME280;41879;52.126;20.638;2022-10-16T00:38:07;57385.50;;;-144.78;96.54
55994;BME280;41879;52.126;20.638;2022-10-16T00:40:33;57393.81;;;-144.78;97.96
55994;BME280;41879;52.126;20.638;2022-10-16T00:42:58;57385.50;;;-144.78;98.09
55994;BME280;41879;52.126;20.638;2022-10-16T00:45:24;57397.97;;;-144.78;97.36
55994;BME280;41879;52.126;20.638;2022-10-16T00:47:51;57404.19;;;-144.78;96.85
55994;BME280;41879;52.126;20.638;2022-10-16T00:50:30;57400.03;;;-144.78;97.20
55994;BME280;41879;52.126;20.638;2022-10-16T00:52:57;57389.66;;;-144.78;97.06
55994;BME280;41879;52.126;20.638;2022-10-16T00:55:24;57375.13;;;-144.78;97.42
55994;BME280;41879;52.126;20.638;2022-10-16T00:57:51;57377.19;;;-144.78;95.99
55994;BME280;41879;52.126;20.638;2022-10-16T01:00:22;57387.59;;;-144.78;94.99
55994;BME280;41879;52.126;20.638;2022-10-16T01:02:57;57385.50;;;-144.78;96.11
55994;BME280;41879;52.126;20.638;2022-10-16T01:05:26;57395.88;;;-144.78;96.30
55994;BME280;41879;52.126;20.638;2022-10-16T01:08:12;57389.66;;;-144.78;95.96
55994;BME280;41879;52.126;20.638;2022-10-16T01:10:52;57393.81;;;-144.78;96.76
55994;BME280;41879;52.126;20.638;2022-10-16T01:13:27;57402.13;;;-144.78;96.87
55994;BME280;41879;52.126;20.638;2022-10-16T01:19:11;57395.88;;;-144.78;97.42
55994;BME280;41879;52.126;20.638;2022-10-16T01:21:43;57397.97;;;-144.78;97.87
55994;BME280;41879;52.126;20.638;2022-10-16T01:30:06;57416.66;;;-144.78;98.24
55994;BME280;41879;52.126;20.638;2022-10-16T01:32:41;57402.13;;;-144.78;98.24
55994;BME280;41879;52.126;20.638;2022-10-16T01:35:15;57402.13;;;-144.78;98.62
55994;BME280;41879;52.126;20.638;2022-10-16T01:40:38;57395.88;;;-144.78;96.49
55994;BME280;41879;52.126;20.638;2022-10-16T01:43:08;57404.19;;;-144.78;96.70
55994;BME280;41879;52.126;20.638;2022-10-16T01:45:36;57406.28;;;-144.78;95.72
55994;BME280;41879;52.126;20.638;2022-10-16T01:48:02;57393.81;;;-144.78;95.87
55994;BME280;41879;52.126;20.638;2022-10-16T01:50:33;57414.59;;;-144.78;96.26
55994;BME280;41879;52.126;20.638;2022-10-16T01:53:01;57400.03;;;-144.78;95.96
55994;BME280;41879;52.126;20.638;2022-10-16T01:55:30;57393.81;;;-144.78;95.42
55994;BME280;41879;52.126;20.638;2022-10-16T01:57:57;57404.19;;;-144.78;95.37
55994;BME280;41879;52.126;20.638;2022-10-16T02:00:26;57395.88;;;-144.78;95.23
55994;BME280;41879;52.126;20.638;2022-10-16T02:02:53;57370.97;;;-144.78;95.16
55994;BME280;41879;52.126;20.638;2022-10-16T02:05:30;57400.03;;;-144.78;94.79
55994;BME280;41879;52.126;20.638;2022-10-16T02:07:57;57397.97;;;-144.78;95.48
55994;BME280;41879;52.126;20.638;2022-10-16T02:10:23;57410.44;;;-144.78;95.49
55994;BME280;41879;52.126;20.638;2022-10-16T02:13:11;57395.88;;;-144.78;96.60
55994;BME280;41879;52.126;20.638;2022-10-16T02:15:38;57414.59;;;-144.78;95.67
55994;BME280;41879;52.126;20.638;2022-10-16T02:18:05;57416.66;;;-144.78;95.58
55994;BME280;41879;52.126;20.638;2022-10-16T02:20:44;57402.13;;;-144.78;95.40
55994;BME280;41879;52.126;20.638;2022-10-16T02:23:16;57400.03;;;-144.78;94.96
55994;BME280;41879;52.126;20.638;2022-10-16T02:25:44;57406.28;;;-144.78;95.56
55994;BME280;41879;52.126;20.638;2022-10-16T02:28:23;57410.44;;;-144.78;95.48
55994;BME280;41879;52.126;20.638;2022-10-16T02:31:00;57404.19;;;-144.78;95.52
55994;BME280;41879;52.126;20.638;2022-10-16T02:33:28;57408.34;;;-144.78;94.99
55994;BME280;41879;52.126;20.638;2022-10-16T02:35:54;57402.13;;;-144.78;95.35
55994;BME280;41879;52.126;20.638;2022-10-16T02:38:21;57385.50;;;-144.78;94.85
55994;BME280;41879;52.126;20.638;2022-10-16T02:40:48;57402.13;;;-144.78;95.69
55994;BME280;41879;52.126;20.638;2022-10-16T02:43:14;57402.13;;;-144.78;95.83
55994;BME280;41879;52.126;20.638;2022-10-16T02:45:40;57416.66;;;-144.78;95.54
55994;BME280;41879;52.126;20.638;2022-10-16T02:48:06;57420.81;;;-144.78;95.93
55994;BME280;41879;52.126;20.638;2022-10-16T02:50:32;57414.59;;;-144.78;95.44
55994;BME280;41879;52.126;20.638;2022-10-16T02:52:57;57408.34;;;-144.78;95.22
55994;BME280;41879;52.126;20.638;2022-10-16T02:55:23;57414.59;;;-144.78;95.31
55994;BME280;41879;52.126;20.638;2022-10-16T02:57:48;57416.66;;;-144.78;95.75
55994;BME280;41879;52.126;20.638;2022-10-16T03:00:16;57420.81;;;-144.78;95.92
55994;BME280;41879;52.126;20.638;2022-10-16T03:02:42;57422.88;;;-144.78;96.13
55994;BME280;41879;52.126;20.638;2022-10-16T03:05:08;57391.75;;;-144.78;96.05
55994;BME280;41879;52.126;20.638;2022-10-16T03:07:34;57404.19;;;-144.78;96.34
55994;BME280;41879;52.126;20.638;2022-10-16T03:10:00;57408.34;;;-144.78;96.31
55994;BME280;41879;52.126;20.638;2022-10-16T03:12:28;57414.59;;;-144.78;96.07
55994;BME280;41879;52.126;20.638;2022-10-16T03:14:57;57418.72;;;-144.78;96.81
55994;BME280;41879;52.126;20.638;2022-10-16T03:17:23;57414.59;;;-144.78;96.75
55994;BME280;41879;52.126;20.638;2022-10-16T03:19:49;57416.66;;;-144.78;97.45
55994;BME280;41879;52.126;20.638;2022-10-16T03:22:15;57414.59;;;-144.78;96.95
55994;BME280;41879;52.126;20.638;2022-10-16T03:24:40;57429.13;;;-144.78;96.95
55994;BME280;41879;52.126;20.638;2022-10-16T03:27:06;57437.44;;;-144.78;97.40
55994;BME280;41879;52.126;20.638;2022-10-16T03:29:32;57404.19;;;-144.78;96.71
55994;BME280;41879;52.126;20.638;2022-10-16T03:31:58;57406.28;;;-144.78;96.33
55994;BME280;41879;52.126;20.638;2022-10-16T03:34:24;57427.03;;;-144.78;96.38
55994;BME280;41879;52.126;20.638;2022-10-16T03:36:51;57402.13;;;-144.78;96.58
55994;BME280;41879;52.126;20.638;2022-10-16T03:39:16;57404.19;;;-144.78;96.77
55994;BME280;41879;52.126;20.638;2022-10-16T03:41:42;57389.66;;;-144.78;96.33
55994;BME280;41879;52.126;20.638;2022-10-16T03:44:07;57416.66;;;-144.78;97.61
55994;BME280;41879;52.126;20.638;2022-10-16T03:46:33;57414.59;;;-144.78;97.90
55994;BME280;41879;52.126;20.638;2022-10-16T03:48:58;57437.44;;;-144.78;98.62
55994;BME280;41879;52.126;20.638;2022-10-16T03:51:24;57431.19;;;-144.78;98.37
55994;BME280;41879;52.126;20.638;2022-10-16T03:53:49;57431.19;;;-144.78;98.62
55994;BME280;41879;52.126;20.638;2022-10-16T03:56:15;57429.13;;;-144.78;98.03
55994;BME280;41879;52.126;20.638;2022-10-16T03:58:40;57441.59;;;-144.78;98.51
55994;BME280;41879;52.126;20.638;2022-10-16T04:01:06;57412.50;;;-144.78;99.01
55994;BME280;41879;52.126;20.638;2022-10-16T04:03:31;57441.59;;;-144.78;99.73
55994;BME280;41879;52.126;20.638;2022-10-16T04:05:57;57431.19;;;-144.78;99.94
55994;BME280;41879;52.126;20.638;2022-10-16T04:08:22;57451.97;;;-144.78;100.00
55994;BME280;41879;52.126;20.638;2022-10-16T04:10:48;57447.81;;;-144.78;100.00
55994;BME280;41879;52.126;20.638;2022-10-16T04:13:14;57470.66;;;-144.78;100.00
55994;BME280;41879;52.126;20.638;2022-10-16T04:15:39;57474.81;;;-144.78;100.00
55994;BME280;41879;52.126;20.638;2022-10-16T04:18:05;57464.41;;;-144.78;100.00
55994;BME280;41879;52.126;20.638;2022-10-16T04:20:31;57451.97;;;-144.78;100.00
55994;BME280;41879;52.126;20.638;2022-10-16T04:22:56;57458.19;;;-144.78;100.00
55994;BME280;41879;52.126;20.638;2022-10-16T04:25:22;57458.19;;;-144.78;100.00
55994;BME280;41879;52.126;20.638;2022-10-16T04:27:47;57451.97;;;-144.78;100.00
55994;BME280;41879;52.126;20.638;2022-10-16T04:30:13;57464.41;;;-144.78;100.00
55994;BME280;41879;52.126;20.638;2022-10-16T04:32:39;57458.19;;;-144.78;100.00
55994;BME280;41879;52.126;20.638;2022-10-16T04:35:05;57464.41;;;-144.78;100.00
55994;BME280;41879;52.126;20.638;2022-10-16T04:37:31;57481.03;;;-144.78;100.00
55994;BME280;41879;52.126;20.638;2022-10-16T04:39:57;57483.13;;;-144.78;100.00
55994;BME280;41879;52.126;20.638;2022-10-16T04:42:22;57472.72;;;-144.78;100.00
55994;BME280;41879;52.126;20.638;2022-10-16T04:44:48;57481.03;;;-144.78;100.00
55994;BME280;41879;52.126;20.638;2022-10-16T04:47:13;57462.34;;;-144.78;100.00
55994;BME280;41879;52.126;20.638;2022-10-16T04:49:39;57474.81;;;-144.78;100.00
55994;BME280;41879;52.126;20.638;2022-10-16T04:52:05;57476.88;;;-144.78;100.00
55994;BME280;41879;52.126;20.638;2022-10-16T04:54:30;57476.88;;;-144.78;100.00
55994;BME280;41879;52.126;20.638;2022-10-16T04:56:56;57489.34;;;-144.78;100.00
55994;BME280;41879;52.126;20.638;2022-10-16T04:59:22;57464.41;;;-144.78;100.00
55994;BME280;41879;52.126;20.638;2022-10-16T05:01:48;57485.19;;;-144.78;100.00
55994;BME280;41879;52.126;20.638;2022-10-16T05:04:14;57485.19;;;-144.78;100.00
55994;BME280;41879;52.126;20.638;2022-10-16T05:06:40;57489.34;;;-144.78;100.00
55994;BME280;41879;52.126;20.638;2022-10-16T05:09:07;57474.81;;;-144.78;100.00
55994;BME280;41879;52.126;20.638;2022-10-16T05:11:33;57472.72;;;-144.78;100.00
55994;BME280;41879;52.126;20.638;2022-10-16T05:13:58;57489.34;;;-144.78;100.00
55994;BME280;41879;52.126;20.638;2022-10-16T05:16:24;57485.19;;;-144.78;100.00
55994;BME280;41879;52.126;20.638;2022-10-16T05:18:51;57510.13;;;-144.78;100.00
55994;BME280;41879;52.126;20.638;2022-10-16T05:21:17;57481.03;;;-144.78;100.00
55994;BME280;41879;52.126;20.638;2022-10-16T05:23:42;57478.97;;;-144.78;100.00
55994;BME280;41879;52.126;20.638;2022-10-16T05:26:08;57481.03;;;-144.78;100.00
55994;BME280;41879;52.126;20.638;2022-10-16T05:28:33;57476.88;;;-144.78;100.00
55994;BME280;41879;52.126;20.638;2022-10-16T05:30:59;57489.34;;;-144.78;100.00
55994;BME280;41879;52.126;20.638;2022-10-16T05:33:25;57485.19;;;-144.78;100.00
55994;BME280;41879;52.126;20.638;2022-10-16T05:35:51;57487.28;;;-144.78;100.00
55994;BME280;41879;52.126;20.638;2022-10-16T05:38:18;57476.88;;;-144.78;100.00
55994;BME280;41879;52.126;20.638;2022-10-16T05:40:50;57476.88;;;-144.78;100.00
55994;BME280;41879;52.126;20.638;2022-10-16T05:43:16;57466.50;;;-144.78;100.00
55994;BME280;41879;52.126;20.638;2022-10-16T05:45:42;57454.03;;;-144.78;100.00
55994;BME280;41879;52.126;20.638;2022-10-16T05:48:07;57478.97;;;-144.78;100.00
55994;BME280;41879;52.126;20.638;2022-10-16T05:50:33;57472.72;;;-144.78;100.00
55994;BME280;41879;52.126;20.638;2022-10-16T05:52:58;57464.41;;;-144.78;100.00
55994;BME280;41879;52.126;20.638;2022-10-16T05:55:24;57468.56;;;-144.78;100.00
55994;BME280;41879;52.126;20.638;2022-10-16T05:57:49;57468.56;;;-144.78;100.00
55994;BME280;41879;52.126;20.638;2022-10-16T06:00:15;57464.41;;;-144.78;100.00
55994;BME280;41879;52.126;20.638;2022-10-16T06:02:40;57462.34;;;-144.78;100.00
55994;BME280;41879;52.126;20.638;2022-10-16T06:05:06;57447.81;;;-144.78;100.00
55994;BME280;41879;52.126;20.638;2022-10-16T06:07:35;57472.72;;;-144.78;100.00
55994;BME280;41879;52.126;20.638;2022-10-16T06:10:01;57443.66;;;-144.78;100.00
55994;BME280;41879;52.126;20.638;2022-10-16T06:12:27;57441.59;;;-144.78;100.00
55994;BME280;41879;52.126;20.638;2022-10-16T06:14:53;57429.13;;;-144.78;100.00
55994;BME280;41879;52.126;20.638;2022-10-16T06:17:19;57441.59;;;-144.78;100.00
55994;BME280;41879;52.126;20.638;2022-10-16T06:19:44;57414.59;;;-144.78;100.00
55994;BME280;41879;52.126;20.638;2022-10-16T06:22:10;57429.13;;;-144.78;100.00
55994;BME280;41879;52.126;20.638;2022-10-16T06:24:35;57431.19;;;-144.78;100.00
55994;BME280;41879;52.126;20.638;2022-10-16T06:27:01;57439.50;;;-144.78;100.00
55994;BME280;41879;52.126;20.638;2022-10-16T06:29:27;57416.66;;;-144.78;100.00
55994;BME280;41879;52.126;20.638;2022-10-16T06:31:53;57416.66;;;-144.78;100.00
55994;BME280;41879;52.126;20.638;2022-10-16T06:34:18;57420.81;;;-144.78;100.00
55994;BME280;41879;52.126;20.638;2022-10-16T06:36:44;57435.34;;;-144.78;100.00
55994;BME280;41879;52.126;20.638;2022-10-16T06:39:09;57433.28;;;-144.78;100.00
55994;BME280;41879;52.126;20.638;2022-10-16T06:41:35;57416.66;;;-144.78;100.00
55994;BME280;41879;52.126;20.638;2022-10-16T06:44:04;57408.34;;;-144.78;100.00
55994;BME280;41879;52.126;20.638;2022-10-16T06:46:30;57404.19;;;-144.78;100.00
55994;BME280;41879;52.126;20.638;2022-10-16T06:48:56;57387.59;;;-144.78;100.00
55994;BME280;41879;52.126;20.638;2022-10-16T06:51:23;57400.03;;;-144.78;100.00
55994;BME280;41879;52.126;20.638;2022-10-16T06:53:51;57395.88;;;-144.78;100.00
55994;BME280;41879;52.126;20.638;2022-10-16T06:56:22;57400.03;;;-144.78;100.00
55994;BME280;41879;52.126;20.638;2022-10-16T06:58:58;57402.13;;;-144.78;100.00
55994;BME280;41879;52.126;20.638;2022-10-16T07:01:28;57402.13;;;-144.78;100.00
55994;BME280;41879;52.126;20.638;2022-10-16T07:03:53;57395.88;;;-144.78;100.00
55994;BME280;41879;52.126;20.638;2022-10-16T07:06:22;57400.03;;;-144.78;100.00
55994;BME280;41879;52.126;20.638;2022-10-16T07:08:48;57397.97;;;-144.78;100.00
55994;BME280;41879;52.126;20.638;2022-10-16T07:11:17;57397.97;;;-144.78;100.00
55994;BME280;41879;52.126;20.638;2022-10-16T07:13:43;57379.28;;;-144.78;100.00
55994;BME280;41879;52.126;20.638;2022-10-16T07:16:17;57381.34;;;-144.78;99.54
55994;BME280;41879;52.126;20.638;2022-10-16T07:18:43;57387.59;;;-144.78;99.87
55994;BME280;41879;52.126;20.638;2022-10-16T07:21:19;57381.34;;;-144.78;98.92
55994;BME280;41879;52.126;20.638;2022-10-16T07:23:50;57379.28;;;-144.78;98.24
55994;BME280;41879;52.126;20.638;2022-10-16T07:26:17;57377.19;;;-144.78;98.04
55994;BME280;41879;52.126;20.638;2022-10-16T07:28:43;57381.34;;;-144.78;97.34
55994;BME280;41879;52.126;20.638;2022-10-16T07:31:12;57360.59;;;-144.78;96.67
55994;BME280;41879;52.126;20.638;2022-10-16T07:33:39;57356.44;;;-144.78;97.39
55994;BME280;41879;52.126;20.638;2022-10-16T07:36:05;57356.44;;;-144.78;97.27
55994;BME280;41879;52.126;20.638;2022-10-16T07:38:31;57350.19;;;-144.78;97.05
55994;BME280;41879;52.126;20.638;2022-10-16T07:41:02;57348.13;;;-144.78;95.48
55994;BME280;41879;52.126;20.638;2022-10-16T07:43:28;57327.34;;;-144.78;95.33
55994;BME280;41879;52.126;20.638;2022-10-16T07:45:54;57316.97;;;-144.78;94.93
55994;BME280;41879;52.126;20.638;2022-10-16T07:48:22;57325.28;;;-144.78;94.06
55994;BME280;41879;52.126;20.638;2022-10-16T07:50:48;57325.28;;;-144.78;93.60
55994;BME280;41879;52.126;20.638;2022-10-16T07:53:14;57335.66;;;-144.78;93.70
55994;BME280;41879;52.126;20.638;2022-10-16T07:55:40;57325.28;;;-144.78;93.37
55994;BME280;41879;52.126;20.638;2022-10-16T07:58:05;57319.06;;;-144.78;93.34
55994;BME280;41879;52.126;20.638;2022-10-16T08:00:32;57304.50;;;-144.78;91.68
55994;BME280;41879;52.126;20.638;2022-10-16T08:02:58;57314.91;;;-144.78;92.41
55994;BME280;41879;52.126;20.638;2022-10-16T08:05:28;57294.13;;;-144.78;92.18
55994;BME280;41879;52.126;20.638;2022-10-16T08:07:55;57289.97;;;-144.78;92.22
55994;BME280;41879;52.126;20.638;2022-10-16T08:10:23;57300.38;;;-144.78;90.85
55994;BME280;41879;52.126;20.638;2022-10-16T08:12:50;57273.38;;;-144.78;90.11
55994;BME280;41879;52.126;20.638;2022-10-16T08:15:16;57285.81;;;-144.78;89.83
55994;BME280;41879;52.126;20.638;2022-10-16T08:17:42;57281.69;;;-144.78;89.58
55994;BME280;41879;52.126;20.638;2022-10-16T08:20:08;57287.91;;;-144.78;89.58
55994;BME280;41879;52.126;20.638;2022-10-16T08:22:34;57285.81;;;-144.78;90.93
55994;BME280;41879;52.126;20.638;2022-10-16T08:24:59;57289.97;;;-144.78;90.20
55994;BME280;41879;52.126;20.638;2022-10-16T08:27:24;57285.81;;;-144.78;90.27
55994;BME280;41879;52.126;20.638;2022-10-16T08:29:50;57285.81;;;-144.78;90.08
55994;BME280;41879;52.126;20.638;2022-10-16T08:32:15;57269.22;;;-144.78;88.76
55994;BME280;41879;52.126;20.638;2022-10-16T08:34:41;57277.53;;;-144.78;89.55
55994;BME280;41879;52.126;20.638;2022-10-16T08:37:06;57296.22;;;-144.78;89.64
55994;BME280;41879;52.126;20.638;2022-10-16T08:39:36;57273.38;;;-144.78;89.94
55994;BME280;41879;52.126;20.638;2022-10-16T08:50:17;57281.69;;;-144.78;89.91
55994;BME280;41879;52.126;20.638;2022-10-16T08:52:44;57273.38;;;-144.78;90.63
55994;BME280;41879;52.126;20.638;2022-10-16T08:58:00;57298.28;;;-144.78;90.00
55994;BME280;41879;52.126;20.638;2022-10-16T09:00:27;57281.69;;;-144.78;89.83
55994;BME280;41879;52.126;20.638;2022-10-16T09:06:07;57269.22;;;-144.78;89.67
55994;BME280;41879;52.126;20.638;2022-10-16T09:09:16;57279.59;;;-144.78;89.67
55994;BME280;41879;52.126;20.638;2022-10-16T09:19:56;57275.44;;;-144.78;89.24
55994;BME280;41879;52.126;20.638;2022-10-16T09:22:27;57279.59;;;-144.78;90.28
55994;BME280;41879;52.126;20.638;2022-10-16T09:24:56;57271.28;;;-144.78;89.23
55994;BME280;41879;52.126;20.638;2022-10-16T09:27:25;57275.44;;;-144.78;89.81
55994;BME280;41879;52.126;20.638;2022-10-16T09:29:51;57275.44;;;-144.78;89.32
55994;BME280;41879;52.126;20.638;2022-10-16T09:32:20;57277.53;;;-144.78;89.31
55994;BME280;41879;52.126;20.638;2022-10-16T09:34:50;57262.97;;;-144.78;88.70
55994;BME280;41879;52.126;20.638;2022-10-16T09:37:20;57271.28;;;-144.78;89.85
55994;BME280;41879;52.126;20.638;2022-10-16T09:39:48;57248.44;;;-144.78;87.86
55994;BME280;41879;52.126;20.638;2022-10-16T09:42:20;57273.38;;;-144.78;88.13
55994;BME280;41879;52.126;20.638;2022-10-16T09:44:51;57258.84;;;-144.78;86.92
55994;BME280;41879;52.126;20.638;2022-10-16T09:49:53;57256.75;;;-144.78;86.75
55994;BME280;41879;52.126;20.638;2022-10-16T09:52:19;57221.44;;;-144.78;87.13
55994;BME280;41879;52.126;20.638;2022-10-16T09:54:58;57265.06;;;-144.78;86.40
55994;BME280;41879;52.126;20.638;2022-10-16T09:57:25;57262.97;;;-144.78;87.34
55994;BME280;41879;52.126;20.638;2022-10-16T09:59:55;57246.38;;;-144.78;86.24
55994;BME280;41879;52.126;20.638;2022-10-16T10:02:33;57256.75;;;-144.78;86.66
55994;BME280;41879;52.126;20.638;2022-10-16T10:04:59;57246.38;;;-144.78;86.44
55994;BME280;41879;52.126;20.638;2022-10-16T10:07:42;57238.06;;;-144.78;85.75
55994;BME280;41879;52.126;20.638;2022-10-16T10:10:40;57273.38;;;-144.78;86.72
55994;BME280;41879;52.126;20.638;2022-10-16T10:13:19;57260.91;;;-144.78;86.63
55994;BME280;41879;52.126;20.638;2022-10-16T10:15:45;57256.75;;;-144.78;86.94
55994;BME280;41879;52.126;20.638;2022-10-16T10:18:18;57231.84;;;-144.78;85.61
55994;BME280;41879;52.126;20.638;2022-10-16T10:20:45;57240.13;;;-144.78;86.43
55994;BME280;41879;52.126;20.638;2022-10-16T10:23:20;57202.75;;;-144.78;85.50
55994;BME280;41879;52.126;20.638;2022-10-16T10:28:55;57211.06;;;-144.78;84.74
55994;BME280;41879;52.126;20.638;2022-10-16T10:34:53;57231.84;;;-144.78;85.56
55994;BME280;41879;52.126;20.638;2022-10-16T10:37:50;57229.75;;;-144.78;85.63
55994;BME280;41879;52.126;20.638;2022-10-16T10:40:39;57240.13;;;-144.78;86.10
55994;BME280;41879;52.126;20.638;2022-10-16T10:46:05;57221.44;;;-144.78;85.58
55994;BME280;41879;52.126;20.638;2022-10-16T10:48:54;57219.38;;;-144.78;86.12
55994;BME280;41879;52.126;20.638;2022-10-16T10:54:54;57248.44;;;-144.78;85.72
55994;BME280;41879;52.126;20.638;2022-10-16T10:57:28;57221.44;;;-144.78;86.29
55994;BME280;41879;52.126;20.638;2022-10-16T11:02:55;57236.00;;;-144.78;86.50
55994;BME280;41879;52.126;20.638;2022-10-16T11:08:16;57229.75;;;-144.78;85.61
55994;BME280;41879;52.126;20.638;2022-10-16T11:15:43;57217.31;;;-144.78;84.91
55994;BME280;41879;52.126;20.638;2022-10-16T11:20:58;57213.16;;;-144.78;83.97
55994;BME280;41879;52.126;20.638;2022-10-16T11:23:30;57215.22;;;-144.78;83.68
55994;BME280;41879;52.126;20.638;2022-10-16T11:26:05;57211.06;;;-144.78;84.51
55994;BME280;41879;52.126;20.638;2022-10-16T11:28:39;57219.38;;;-144.78;85.42
55994;BME280;41879;52.126;20.638;2022-10-16T11:31:13;57217.31;;;-144.78;83.47
55994;BME280;41879;52.126;20.638;2022-10-16T11:33:49;57211.06;;;-144.78;85.39
55994;BME280;41879;52.126;20.638;2022-10-16T11:38:53;57215.22;;;-144.78;83.51
55994;BME280;41879;52.126;20.638;2022-10-16T11:49:28;57215.22;;;-144.78;83.33
55994;BME280;41879;52.126;20.638;2022-10-16T11:54:47;57229.75;;;-144.78;83.17
55994;BME280;41879;52.126;20.638;2022-10-16T11:57:23;57223.53;;;-144.78;82.43
55994;BME280;41879;52.126;20.638;2022-10-16T12:00:29;57225.59;;;-144.78;82.76
55994;BME280;41879;52.126;20.638;2022-10-16T12:08:33;57233.91;;;-144.78;83.84
55994;BME280;41879;52.126;20.638;2022-10-16T12:13:46;57215.22;;;-144.78;83.26
55994;BME280;41879;52.126;20.638;2022-10-16T12:18:40;57211.06;;;-144.78;83.23
55994;BME280;41879;52.126;20.638;2022-10-16T12:21:07;57182.00;;;-144.78;82.42
55994;BME280;41879;52.126;20.638;2022-10-16T12:23:56;57186.16;;;-144.78;81.60
55994;BME280;41879;52.126;20.638;2022-10-16T12:26:28;57204.84;;;-144.78;82.15
55994;BME280;41879;52.126;20.638;2022-10-16T12:28:55;57194.47;;;-144.78;82.79
55994;BME280;41879;52.126;20.638;2022-10-16T12:31:21;57206.91;;;-144.78;82.50
55994;BME280;41879;52.126;20.638;2022-10-16T12:34:00;57184.06;;;-144.78;83.03
55994;BME280;41879;52.126;20.638;2022-10-16T12:36:32;57188.22;;;-144.78;82.69
55994;BME280;41879;52.126;20.638;2022-10-16T12:38:58;57192.38;;;-144.78;82.18
55994;BME280;41879;52.126;20.638;2022-10-16T12:41:33;57196.53;;;-144.78;81.81
55994;BME280;41879;52.126;20.638;2022-10-16T12:44:01;57175.75;;;-144.78;83.82
55994;BME280;41879;52.126;20.638;2022-10-16T12:51:53;57202.75;;;-144.78;83.15
55994;BME280;41879;52.126;20.638;2022-10-16T12:54:27;57190.31;;;-144.78;82.77
55994;BME280;41879;52.126;20.638;2022-10-16T12:59:50;57192.38;;;-144.78;82.72
55994;BME280;41879;52.126;20.638;2022-10-16T13:10:47;57213.16;;;-144.78;84.69
55994;BME280;41879;52.126;20.638;2022-10-16T13:16:50;57217.31;;;-144.78;85.10
55994;BME280;41879;52.126;20.638;2022-10-16T13:20:15;57223.53;;;-144.78;85.32
55994;BME280;41879;52.126;20.638;2022-10-16T13:27:54;57229.75;;;-144.78;84.81
55994;BME280;41879;52.126;20.638;2022-10-16T13:30:25;57206.91;;;-144.78;85.03
55994;BME280;41879;52.126;20.638;2022-10-16T13:33:14;57227.69;;;-144.78;85.09
55994;BME280;41879;52.126;20.638;2022-10-16T13:35:52;57198.59;;;-144.78;85.33
55994;BME280;41879;52.126;20.638;2022-10-16T13:38:21;57225.59;;;-144.78;85.45
55994;BME280;41879;52.126;20.638;2022-10-16T13:43:21;57211.06;;;-144.78;86.03
55994;BME280;41879;52.126;20.638;2022-10-16T13:46:15;57227.69;;;-144.78;86.00
55994;BME280;41879;52.126;20.638;2022-10-16T13:48:41;57240.13;;;-144.78;85.51
55994;BME280;41879;52.126;20.638;2022-10-16T13:51:17;57223.53;;;-144.78;85.96
55994;BME280;41879;52.126;20.638;2022-10-16T13:53:44;57225.59;;;-144.78;86.05
55994;BME280;41879;52.126;20.638;2022-10-16T13:56:14;57223.53;;;-144.78;86.81
55994;BME280;41879;52.126;20.638;2022-10-16T13:58:40;57231.84;;;-144.78;86.90
55994;BME280;41879;52.126;20.638;2022-10-16T14:03:42;57223.53;;;-144.78;87.17
55994;BME280;41879;52.126;20.638;2022-10-16T14:06:13;57213.16;;;-144.78;86.59
55994;BME280;41879;52.126;20.638;2022-10-16T14:08:44;57223.53;;;-144.78;87.30
55994;BME280;41879;52.126;20.638;2022-10-16T14:11:10;57223.53;;;-144.78;86.72
55994;BME280;41879;52.126;20.638;2022-10-16T14:13:44;57227.69;;;-144.78;86.47
55994;BME280;41879;52.126;20.638;2022-10-16T14:16:17;57223.53;;;-144.78;86.83
55994;BME280;41879;52.126;20.638;2022-10-16T14:18:46;57227.69;;;-144.78;87.32
55994;BME280;41879;52.126;20.638;2022-10-16T14:21:16;57229.75;;;-144.78;87.13
55994;BME280;41879;52.126;20.638;2022-10-16T14:23:42;57219.38;;;-144.78;86.97
55994;BME280;41879;52.126;20.638;2022-10-16T14:28:34;57221.44;;;-144.78;86.95
55994;BME280;41879;52.126;20.638;2022-10-16T14:31:02;57227.69;;;-144.78;87.10
55994;BME280;41879;52.126;20.638;2022-10-16T14:33:42;57219.38;;;-144.78;87.66
55994;BME280;41879;52.126;20.638;2022-10-16T14:36:13;57227.69;;;-144.78;87.91
55994;BME280;41879;52.126;20.638;2022-10-16T14:38:42;57225.59;;;-144.78;87.68